Decoded Metar for OISS (SHIRAZ in IRAN) (IATA:SYZ) | Meteo·Mobile Aviation Weather
aviador You're here:

OISS Decoded Metar

SHIRAZ in IRAN
Report Time2018-09-22 02:30:00
UTC Time2018-09-22 02:57:57
Flight Rules vfr VFR
WindCalm
Visibility9999 m
Phenomena:N/A
Clouds:N/A
Expected CloudBase > 2,800 ft AGL from Temp-Dew spread
CeilingNone
Temp16°C (ISA +11)
Dew Point09°C (63% RH)
AAT15.8°C
QNH1019 hPa
Density Alt6,106 ft
Elevation4,892 ft
Report Wrong Elevation
Raw Report
METAR OISS 220230Z 00000KT CAVOK 16/09 Q1019 A3011=

Extra information for OISS:More info

Metar Taf Metar & Taf Last 4 Metars F.Rules Stats Wind Profile Meteogram Temp Stats Airport Information Weather charts Add Link Nearby VenuesMetar ALERT Operation Metar Decoded Social comments